createdAt,value
2023-04-08T00:04:46.116Z,100513.53
2023-04-08T00:09:50.277Z,100519.81
2023-04-08T00:14:53.205Z,100514.31
2023-04-08T00:19:56.577Z,100514.53
2023-04-08T00:25:00.781Z,100517.34
2023-04-08T00:30:03.832Z,100506.53
2023-04-08T00:35:07.652Z,100511.19
2023-04-08T00:40:12.662Z,100521.97
2023-04-08T00:45:15.527Z,100509.69
2023-04-08T00:50:18.471Z,100506.22
2023-04-08T00:55:22.958Z,100511.00
2023-04-08T01:00:26.345Z,100510.34
2023-04-08T01:05:33.591Z,100507.25
2023-04-08T01:10:43.052Z,100506.91
2023-04-08T01:15:47.049Z,100516.19
2023-04-08T01:20:52.074Z,100517.50
2023-04-08T01:25:56.725Z,100514.38
2023-04-08T01:31:01.579Z,100523.66
2023-04-08T01:36:05.320Z,100517.84
2023-04-08T01:41:11.463Z,100515.56
2023-04-08T01:46:15.574Z,100516.84
2023-04-08T01:51:19.310Z,100507.38
2023-04-08T01:56:24.413Z,100511.25
2023-04-08T02:01:30.732Z,100506.16
2023-04-08T02:06:34.323Z,100511.00
2023-04-08T02:11:38.511Z,100513.03
2023-04-08T02:16:49.914Z,100513.28
2023-04-08T02:21:59.061Z,100514.56
2023-04-08T02:27:04.930Z,100514.88
2023-04-08T02:32:09.829Z,100518.66
2023-04-08T02:37:13.054Z,100509.00
2023-04-08T02:42:17.273Z,100513.84
2023-04-08T02:47:21.253Z,100521.25
2023-04-08T02:52:24.081Z,100526.00
2023-04-08T02:57:28.174Z,100525.47
2023-04-08T03:02:31.081Z,100525.75
2023-04-08T03:07:33.981Z,100521.47
2023-04-08T03:12:38.262Z,100527.16
2023-04-08T03:17:41.491Z,100530.03
2023-04-08T03:22:44.357Z,100539.19
2023-04-08T03:27:48.468Z,100541.97
2023-04-08T03:32:51.348Z,100546.81
2023-04-08T03:37:55.068Z,100549.69
2023-04-08T03:42:59.319Z,100549.81
2023-04-08T03:48:02.157Z,100550.00
2023-04-08T03:53:05.186Z,100545.69
2023-04-08T03:58:09.593Z,100547.59
2023-04-08T04:03:13.467Z,100546.84
2023-04-08T04:08:16.514Z,100556.94
2023-04-08T04:13:21.901Z,100564.28
2023-04-08T04:18:24.762Z,100558.22
2023-04-08T04:23:27.706Z,100564.66
2023-04-08T04:28:31.984Z,100565.66
2023-04-08T04:33:34.751Z,100564.84
2023-04-08T04:38:39.022Z,100568.63
2023-04-08T04:43:43.330Z,100582.19
2023-04-08T04:48:46.269Z,100586.03
2023-04-08T04:53:49.830Z,100575.34
2023-04-08T04:58:53.958Z,100586.28
2023-04-08T05:03:56.857Z,100594.47
2023-04-08T05:08:59.746Z,100598.13
2023-04-08T05:14:03.889Z,100599.06
2023-04-08T05:19:06.760Z,100601.00
2023-04-08T05:24:09.682Z,100614.69
2023-04-08T05:29:13.802Z,100608.41
2023-04-08T05:34:22.843Z,100616.69
2023-04-08T05:39:26.379Z,100610.53
2023-04-08T05:44:30.597Z,100613.13
2023-04-08T05:49:34.377Z,100615.94
2023-04-08T05:54:37.538Z,100625.16
2023-04-08T05:59:41.665Z,100623.31
2023-04-08T06:04:44.465Z,100629.66
2023-04-08T06:09:47.571Z,100651.38
2023-04-08T06:14:55.238Z,100640.50
2023-04-08T06:19:57.999Z,100652.22
2023-04-08T06:25:00.853Z,100659.53
2023-04-08T06:30:05.625Z,100657.63
2023-04-08T06:35:09.392Z,100663.97
2023-04-08T06:40:12.708Z,100674.81
2023-04-08T06:45:16.935Z,100681.94
2023-04-08T06:50:19.704Z,100694.69
2023-04-08T06:55:22.729Z,100689.31
2023-04-08T07:00:27.456Z,100682.09
2023-04-08T07:05:30.442Z,100692.22
2023-04-08T07:10:33.359Z,100698.47
2023-04-08T07:15:37.839Z,100711.59
2023-04-08T07:20:41.884Z,100709.44
2023-04-08T07:25:44.815Z,100715.69
2023-04-08T07:30:49.083Z,100711.19
2023-04-08T07:35:51.927Z,100718.00
2023-04-08T07:40:54.686Z,100714.63
2023-04-08T07:46:03.950Z,100716.75
2023-04-08T07:51:10.877Z,100721.69
2023-04-08T07:56:18.125Z,100731.03
2023-04-08T08:01:23.661Z,100731.50
2023-04-08T08:06:27.599Z,100725.97
2023-04-08T08:11:30.530Z,100728.38
2023-04-08T08:16:34.932Z,100730.41
2023-04-08T08:21:39.489Z,100748.03
2023-04-08T08:26:45.229Z,100742.72
2023-04-08T08:31:49.398Z,100741.75
2023-04-08T08:36:53.230Z,100755.03
2023-04-08T08:41:57.028Z,100748.44
2023-04-08T08:47:01.563Z,100758.94
2023-04-08T08:52:04.451Z,100753.56
2023-04-08T08:57:18.546Z,100769.44
2023-04-08T09:02:28.079Z,100771.06
2023-04-08T09:07:32.113Z,100775.41
2023-04-08T09:12:35.262Z,100780.59
2023-04-08T09:17:41.551Z,100776.53
2023-04-08T09:22:58.800Z,100779.94
2023-04-08T09:28:03.044Z,100793.00
2023-04-08T09:33:07.541Z,100793.00
2023-04-08T09:38:10.835Z,100793.88
2023-04-08T09:43:16.978Z,100804.66
2023-04-08T09:48:28.826Z,100804.53
2023-04-08T09:53:36.564Z,100799.75
2023-04-08T09:58:43.693Z,100802.16
2023-04-08T10:03:53.726Z,100813.91
2023-04-08T10:08:57.718Z,100810.72
2023-04-08T10:14:01.119Z,100818.44
2023-04-08T10:50:32.336Z,100843.50
2023-04-08T10:55:35.232Z,100834.66
2023-04-08T11:00:40.072Z,100832.34
2023-04-08T11:05:44.378Z,100830.63
2023-04-08T11:10:48.271Z,100834.59
2023-04-08T11:15:51.462Z,100830.94
2023-04-08T11:20:56.388Z,100823.91
2023-04-08T11:26:00.402Z,100826.22
2023-04-08T11:31:04.341Z,100835.56
2023-04-08T11:36:09.493Z,100832.00
2023-04-08T11:41:13.048Z,100824.59
2023-04-08T11:46:15.993Z,100832.69
2023-04-08T11:51:20.265Z,100835.84
2023-04-08T11:56:24.492Z,100827.38
2023-04-08T12:01:27.942Z,100827.00
2023-04-08T12:06:32.431Z,100826.13
2023-04-08T12:11:35.204Z,100827.66
2023-04-08T12:16:38.083Z,100837.47
2023-04-08T12:21:42.656Z,100839.13
2023-04-08T12:26:45.415Z,100837.59
2023-04-08T12:31:48.362Z,100841.34
2023-04-08T12:36:52.577Z,100838.75
2023-04-08T12:41:55.453Z,100837.88
2023-04-08T12:46:59.121Z,100835.19
2023-04-08T12:52:03.723Z,100831.91
2023-04-08T12:57:06.488Z,100828.81
2023-04-08T13:02:09.335Z,100837.19
2023-04-08T13:07:13.482Z,100831.72
2023-04-08T13:12:16.268Z,100836.25
2023-04-08T13:17:19.172Z,100834.22
2023-04-08T13:22:23.304Z,100834.09
2023-04-08T13:27:26.079Z,100829.78
2023-04-08T13:32:28.936Z,100829.69
2023-04-08T13:37:33.266Z,100833.06
2023-04-08T13:42:36.071Z,100828.53
2023-04-08T13:47:38.901Z,100833.81
2023-04-08T13:52:43.064Z,100830.06
2023-04-08T13:57:45.866Z,100833.63
2023-04-08T14:02:48.710Z,100833.81
2023-04-08T14:07:53.132Z,100842.97
2023-04-08T14:12:55.970Z,100841.44
2023-04-08T14:17:58.733Z,100847.81
2023-04-08T14:23:03.093Z,100845.28
2023-04-08T14:28:06.201Z,100849.75
2023-04-08T14:33:09.026Z,100845.22
2023-04-08T14:38:13.314Z,100853.09
2023-04-08T14:43:16.185Z,100847.19
2023-04-08T14:48:19.184Z,100854.13
2023-04-08T14:53:23.370Z,100848.09
2023-04-08T14:58:26.344Z,100853.09
2023-04-08T15:03:29.234Z,100857.63
2023-04-08T15:08:34.874Z,100851.94
2023-04-08T15:13:37.737Z,100857.91
2023-04-08T15:18:41.019Z,100851.34
2023-04-08T15:23:45.812Z,100859.75
2023-04-08T15:28:48.831Z,100861.94
2023-04-08T15:33:52.299Z,100868.97
2023-04-08T15:38:56.845Z,100861.44
2023-04-08T15:43:59.714Z,100873.22
2023-04-08T15:49:02.493Z,100890.78
2023-04-08T15:54:06.612Z,100893.72
2023-04-08T15:59:09.312Z,100890.94
2023-04-08T16:04:12.495Z,100898.72
2023-04-08T16:09:18.676Z,100905.34
2023-04-08T16:14:21.786Z,100905.47
2023-04-08T16:19:24.500Z,100917.13
2023-04-08T16:24:28.768Z,100912.16
2023-04-08T16:29:31.760Z,100925.03
2023-04-08T16:34:34.546Z,100922.69
2023-04-08T16:39:38.693Z,100930.22
2023-04-08T16:44:41.834Z,100937.25
2023-04-08T16:49:44.631Z,100941.41
2023-04-08T16:54:48.797Z,100957.22
2023-04-08T16:59:51.610Z,100962.31
2023-04-08T17:04:54.425Z,100955.31
2023-04-08T17:09:58.752Z,100958.13
2023-04-08T17:15:01.513Z,100958.25
2023-04-08T17:20:05.197Z,100956.09
2023-04-08T17:25:10.599Z,100974.06
2023-04-08T17:30:13.976Z,100988.06
2023-04-08T17:35:17.238Z,100992.88
2023-04-08T17:40:21.864Z,100998.19
2023-04-08T17:45:24.696Z,101002.41
2023-04-08T17:50:27.472Z,101002.03
2023-04-08T17:55:31.910Z,101021.00
2023-04-08T18:00:34.938Z,101015.91
2023-04-08T18:05:37.701Z,101028.25
2023-04-08T18:10:43.480Z,101027.19
2023-04-08T18:15:46.535Z,101037.91
2023-04-08T18:20:49.275Z,101050.03
2023-04-08T18:25:53.421Z,101051.22
2023-04-08T18:30:56.448Z,101049.00
2023-04-08T18:36:07.247Z,101058.25
2023-04-08T18:41:11.569Z,101060.66
2023-04-08T18:46:14.360Z,101055.44
2023-04-08T18:51:17.656Z,101059.69
2023-04-08T18:56:22.158Z,101065.44
2023-04-08T19:01:25.054Z,101066.13
2023-04-08T19:06:28.627Z,101064.50
2023-04-08T19:11:32.807Z,101066.81
2023-04-08T19:16:35.901Z,101069.25
2023-04-08T19:21:38.713Z,101067.84
2023-04-08T19:26:43.018Z,101062.84
2023-04-08T19:31:46.044Z,101069.03
2023-04-08T19:36:49.047Z,101065.09
2023-04-08T19:41:53.230Z,101058.25
2023-04-08T19:46:57.762Z,101062.66
2023-04-08T19:52:01.158Z,101066.34
2023-04-08T19:57:08.093Z,101069.41
2023-04-08T20:02:10.932Z,101076.75
2023-04-08T20:07:14.148Z,101078.56
2023-04-08T20:12:18.333Z,101079.19
2023-04-08T20:17:21.666Z,101091.81
2023-04-08T20:22:24.501Z,101092.66
2023-04-08T20:27:28.830Z,101094.41
2023-04-08T20:32:31.571Z,101100.03
2023-04-08T20:37:34.467Z,101098.56
2023-04-08T20:42:38.659Z,101104.81
2023-04-08T20:47:41.458Z,101094.59
2023-04-08T20:52:44.239Z,101097.50
2023-04-08T20:57:48.428Z,101096.63
2023-04-08T21:02:51.473Z,101095.47
2023-04-08T21:07:54.482Z,101101.63
2023-04-08T21:12:59.883Z,101091.25
2023-04-08T21:18:02.833Z,101092.34
2023-04-08T21:23:07.089Z,101099.69
2023-04-08T21:28:11.152Z,101105.50
2023-04-08T21:33:14.207Z,101099.66
2023-04-08T21:38:17.014Z,101092.72
2023-04-08T21:43:21.810Z,101101.97
2023-04-08T21:48:24.742Z,101092.53
2023-04-08T21:53:27.565Z,101093.72
2023-04-08T21:58:31.644Z,101100.25
2023-04-08T22:03:34.418Z,101093.97
2023-04-08T22:08:37.326Z,101099.78
2023-04-08T22:13:41.452Z,101094.66
2023-04-08T22:18:44.195Z,101096.97
2023-04-08T22:23:46.946Z,101094.94
2023-04-08T22:28:51.537Z,101091.16
2023-04-08T22:33:54.681Z,101093.84
2023-04-08T22:38:57.456Z,101097.41
2023-04-08T22:44:01.621Z,101098.28
2023-04-08T22:49:04.447Z,101105.84
2023-04-08T22:54:07.251Z,101106.22
2023-04-08T22:59:11.327Z,101118.75
2023-04-08T23:04:14.092Z,101116.16
2023-04-08T23:09:16.972Z,101118.00
2023-04-08T23:14:21.082Z,101115.94
2023-04-08T23:19:23.857Z,101119.47
2023-04-08T23:24:26.653Z,101114.31
2023-04-08T23:29:31.548Z,101116.66
2023-04-08T23:34:36.304Z,101103.41
2023-04-08T23:39:39.314Z,101108.66
2023-04-08T23:44:43.468Z,101103.41
2023-04-08T23:49:46.193Z,101108.91
2023-04-08T23:54:50.921Z,101109.88
2023-04-08T23:59:55.017Z,101108.66
